sensor_id;sensor_type;location;lat;lon;timestamp;temperature;humidity
34927;DHT22;21132;48.308;14.274;2023-03-12T00:00:30;5.90;50.10
34927;DHT22;21132;48.308;14.274;2023-03-12T00:02:56;5.90;50.20
34927;DHT22;21132;48.308;14.274;2023-03-12T00:05:22;5.80;50.20
34927;DHT22;21132;48.308;14.274;2023-03-12T00:07:50;5.80;50.30
34927;DHT22;21132;48.308;14.274;2023-03-12T00:10:17;5.70;50.40
34927;DHT22;21132;48.308;14.274;2023-03-12T00:12:43;5.70;50.50
34927;DHT22;21132;48.308;14.274;2023-03-12T00:15:09;5.70;50.60
34927;DHT22;21132;48.308;14.274;2023-03-12T00:17:37;5.70;50.80
34927;DHT22;21132;48.308;14.274;2023-03-12T00:20:04;5.60;50.80
34927;DHT22;21132;48.308;14.274;2023-03-12T00:22:33;5.60;50.90
34927;DHT22;21132;48.308;14.274;2023-03-12T00:24:59;5.50;50.80
34927;DHT22;21132;48.308;14.274;2023-03-12T00:27:26;5.50;51.00
34927;DHT22;21132;48.308;14.274;2023-03-12T00:29:52;5.50;51.30
34927;DHT22;21132;48.308;14.274;2023-03-12T00:32:18;5.50;51.50
34927;DHT22;21132;48.308;14.274;2023-03-12T00:34:48;5.40;51.60
34927;DHT22;21132;48.308;14.274;2023-03-12T00:37:14;5.40;51.60
34927;DHT22;21132;48.308;14.274;2023-03-12T00:39:40;5.40;51.60
34927;DHT22;21132;48.308;14.274;2023-03-12T00:42:06;5.40;51.70
34927;DHT22;21132;48.308;14.274;2023-03-12T00:44:31;5.30;51.80
34927;DHT22;21132;48.308;14.274;2023-03-12T00:46:57;5.30;52.00
34927;DHT22;21132;48.308;14.274;2023-03-12T00:49:23;5.30;52.00
34927;DHT22;21132;48.308;14.274;2023-03-12T00:51:49;5.30;52.00
34927;DHT22;21132;48.308;14.274;2023-03-12T00:54:15;5.20;52.10
34927;DHT22;21132;48.308;14.274;2023-03-12T00:56:40;5.20;52.20
34927;DHT22;21132;48.308;14.274;2023-03-12T00:59:06;5.20;52.30
34927;DHT22;21132;48.308;14.274;2023-03-12T01:01:32;5.10;52.30
34927;DHT22;21132;48.308;14.274;2023-03-12T01:03:58;5.10;52.40
34927;DHT22;21132;48.308;14.274;2023-03-12T01:06:24;5.10;52.50
34927;DHT22;21132;48.308;14.274;2023-03-12T01:08:50;5.10;52.60
34927;DHT22;21132;48.308;14.274;2023-03-12T01:11:19;5.10;52.60
34927;DHT22;21132;48.308;14.274;2023-03-12T01:13:45;5.10;52.80
34927;DHT22;21132;48.308;14.274;2023-03-12T01:16:11;5.00;52.70
34927;DHT22;21132;48.308;14.274;2023-03-12T01:18:37;5.00;52.90
34927;DHT22;21132;48.308;14.274;2023-03-12T01:21:03;5.00;53.00
34927;DHT22;21132;48.308;14.274;2023-03-12T01:23:29;5.00;53.10
34927;DHT22;21132;48.308;14.274;2023-03-12T01:25:55;5.00;53.20
34927;DHT22;21132;48.308;14.274;2023-03-12T01:28:22;4.90;53.20
34927;DHT22;21132;48.308;14.274;2023-03-12T01:30:48;5.00;53.30
34927;DHT22;21132;48.308;14.274;2023-03-12T01:33:14;4.90;53.30
34927;DHT22;21132;48.308;14.274;2023-03-12T01:35:40;4.90;53.20
34927;DHT22;21132;48.308;14.274;2023-03-12T01:38:08;4.90;53.30
34927;DHT22;21132;48.308;14.274;2023-03-12T01:40:36;4.90;53.30
34927;DHT22;21132;48.308;14.274;2023-03-12T01:43:27;4.90;53.20
34927;DHT22;21132;48.308;14.274;2023-03-12T01:48:43;4.90;53.20
34927;DHT22;21132;48.308;14.274;2023-03-12T01:51:13;4.90;53.10
34927;DHT22;21132;48.308;14.274;2023-03-12T01:53:42;4.80;53.10
34927;DHT22;21132;48.308;14.274;2023-03-12T01:56:10;4.80;53.10
34927;DHT22;21132;48.308;14.274;2023-03-12T01:58:38;4.80;53.10
34927;DHT22;21132;48.308;14.274;2023-03-12T02:01:05;4.80;53.20
34927;DHT22;21132;48.308;14.274;2023-03-12T02:03:32;4.80;53.30
34927;DHT22;21132;48.308;14.274;2023-03-12T02:06:06;4.80;53.30
34927;DHT22;21132;48.308;14.274;2023-03-12T02:08:37;4.70;53.30
34927;DHT22;21132;48.308;14.274;2023-03-12T02:11:04;4.70;53.20
34927;DHT22;21132;48.308;14.274;2023-03-12T02:13:30;4.70;53.20
34927;DHT22;21132;48.308;14.274;2023-03-12T02:15:56;4.70;53.20
34927;DHT22;21132;48.308;14.274;2023-03-12T02:18:22;4.70;53.30
34927;DHT22;21132;48.308;14.274;2023-03-12T02:26:03;4.60;53.50
34927;DHT22;21132;48.308;14.274;2023-03-12T02:28:29;4.50;53.40
34927;DHT22;21132;48.308;14.274;2023-03-12T02:31:02;4.50;53.40
34927;DHT22;21132;48.308;14.274;2023-03-12T02:33:28;4.50;53.90
34927;DHT22;21132;48.308;14.274;2023-03-12T02:35:54;4.40;54.10
34927;DHT22;21132;48.308;14.274;2023-03-12T02:38:46;4.40;54.30
34927;DHT22;21132;48.308;14.274;2023-03-12T02:41:22;4.30;54.10
34927;DHT22;21132;48.308;14.274;2023-03-12T02:44:19;4.30;54.00
34927;DHT22;21132;48.308;14.274;2023-03-12T02:46:50;4.30;54.20
34927;DHT22;21132;48.308;14.274;2023-03-12T02:49:17;4.30;54.00
34927;DHT22;21132;48.308;14.274;2023-03-12T02:51:45;4.30;54.00
34927;DHT22;21132;48.308;14.274;2023-03-12T02:54:12;4.30;54.20
34927;DHT22;21132;48.308;14.274;2023-03-12T02:56:39;4.20;54.30
34927;DHT22;21132;48.308;14.274;2023-03-12T02:59:05;4.20;54.30
34927;DHT22;21132;48.308;14.274;2023-03-12T03:01:31;4.10;54.50
34927;DHT22;21132;48.308;14.274;2023-03-12T03:03:59;4.10;54.70
34927;DHT22;21132;48.308;14.274;2023-03-12T03:06:25;4.10;54.80
34927;DHT22;21132;48.308;14.274;2023-03-12T03:08:51;4.10;54.90
34927;DHT22;21132;48.308;14.274;2023-03-12T03:11:17;4.00;55.00
34927;DHT22;21132;48.308;14.274;2023-03-12T03:13:43;4.00;55.10
34927;DHT22;21132;48.308;14.274;2023-03-12T03:16:09;4.00;55.10
34927;DHT22;21132;48.308;14.274;2023-03-12T03:18:37;4.00;55.00
34927;DHT22;21132;48.308;14.274;2023-03-12T03:21:05;4.00;55.10
34927;DHT22;21132;48.308;14.274;2023-03-12T03:23:32;4.00;55.10
34927;DHT22;21132;48.308;14.274;2023-03-12T03:25:58;3.90;55.10
34927;DHT22;21132;48.308;14.274;2023-03-12T03:28:26;3.90;55.00
34927;DHT22;21132;48.308;14.274;2023-03-12T03:30:53;3.90;55.00
34927;DHT22;21132;48.308;14.274;2023-03-12T03:33:20;3.90;55.10
34927;DHT22;21132;48.308;14.274;2023-03-12T03:35:47;3.90;55.20
34927;DHT22;21132;48.308;14.274;2023-03-12T03:38:13;3.90;55.30
34927;DHT22;21132;48.308;14.274;2023-03-12T03:40:38;3.90;55.30
34927;DHT22;21132;48.308;14.274;2023-03-12T03:43:04;3.80;55.20
34927;DHT22;21132;48.308;14.274;2023-03-12T03:45:30;3.80;55.30
34927;DHT22;21132;48.308;14.274;2023-03-12T03:47:56;3.80;55.40
34927;DHT22;21132;48.308;14.274;2023-03-12T03:50:22;3.80;55.20
34927;DHT22;21132;48.308;14.274;2023-03-12T03:52:47;3.70;55.60
34927;DHT22;21132;48.308;14.274;2023-03-12T03:55:13;3.70;55.80
34927;DHT22;21132;48.308;14.274;2023-03-12T03:57:39;3.70;55.80
34927;DHT22;21132;48.308;14.274;2023-03-12T04:00:05;3.70;55.80
34927;DHT22;21132;48.308;14.274;2023-03-12T04:02:34;3.70;55.70
34927;DHT22;21132;48.308;14.274;2023-03-12T04:05:01;3.60;55.70
34927;DHT22;21132;48.308;14.274;2023-03-12T04:07:27;3.70;55.80
34927;DHT22;21132;48.308;14.274;2023-03-12T04:09:53;3.60;55.80
34927;DHT22;21132;48.308;14.274;2023-03-12T04:12:20;3.60;55.80
34927;DHT22;21132;48.308;14.274;2023-03-12T04:14:46;3.60;55.80
34927;DHT22;21132;48.308;14.274;2023-03-12T04:17:11;3.60;55.70
34927;DHT22;21132;48.308;14.274;2023-03-12T04:19:37;3.60;55.70
34927;DHT22;21132;48.308;14.274;2023-03-12T04:22:03;3.60;55.80
34927;DHT22;21132;48.308;14.274;2023-03-12T04:24:29;3.60;55.80
34927;DHT22;21132;48.308;14.274;2023-03-12T04:26:56;3.60;55.80
34927;DHT22;21132;48.308;14.274;2023-03-12T04:29:22;3.60;55.80
34927;DHT22;21132;48.308;14.274;2023-03-12T04:31:48;3.60;55.90
34927;DHT22;21132;48.308;14.274;2023-03-12T04:34:13;3.70;56.20
34927;DHT22;21132;48.308;14.274;2023-03-12T04:36:39;3.70;56.10
34927;DHT22;21132;48.308;14.274;2023-03-12T04:39:05;3.70;56.10
34927;DHT22;21132;48.308;14.274;2023-03-12T04:41:32;3.70;56.30
34927;DHT22;21132;48.308;14.274;2023-03-12T04:43:58;3.60;56.30
34927;DHT22;21132;48.308;14.274;2023-03-12T04:46:24;3.60;56.40
34927;DHT22;21132;48.308;14.274;2023-03-12T04:48:50;3.60;56.40
34927;DHT22;21132;48.308;14.274;2023-03-12T04:51:16;3.70;56.70
34927;DHT22;21132;48.308;14.274;2023-03-12T04:53:42;3.70;56.80
34927;DHT22;21132;48.308;14.274;2023-03-12T04:56:08;3.70;56.80
34927;DHT22;21132;48.308;14.274;2023-03-12T04:58:34;3.70;57.00
34927;DHT22;21132;48.308;14.274;2023-03-12T05:01:00;3.70;57.00
34927;DHT22;21132;48.308;14.274;2023-03-12T05:03:26;3.70;56.90
34927;DHT22;21132;48.308;14.274;2023-03-12T05:05:52;3.70;56.90
34927;DHT22;21132;48.308;14.274;2023-03-12T05:08:17;3.70;56.80
34927;DHT22;21132;48.308;14.274;2023-03-12T05:10:43;3.70;56.60
34927;DHT22;21132;48.308;14.274;2023-03-12T05:13:16;3.70;56.50
34927;DHT22;21132;48.308;14.274;2023-03-12T05:15:43;3.70;56.40
34927;DHT22;21132;48.308;14.274;2023-03-12T05:18:10;3.70;56.50
34927;DHT22;21132;48.308;14.274;2023-03-12T05:20:35;3.70;56.50
34927;DHT22;21132;48.308;14.274;2023-03-12T05:23:01;3.70;56.50
34927;DHT22;21132;48.308;14.274;2023-03-12T05:25:27;3.70;56.40
34927;DHT22;21132;48.308;14.274;2023-03-12T05:27:53;3.70;56.50
34927;DHT22;21132;48.308;14.274;2023-03-12T05:30:20;3.70;56.40
34927;DHT22;21132;48.308;14.274;2023-03-12T05:32:46;3.70;56.40
34927;DHT22;21132;48.308;14.274;2023-03-12T05:35:12;3.70;56.50
34927;DHT22;21132;48.308;14.274;2023-03-12T05:37:38;3.70;56.50
34927;DHT22;21132;48.308;14.274;2023-03-12T05:40:04;3.70;56.50
34927;DHT22;21132;48.308;14.274;2023-03-12T05:42:32;3.70;56.60
34927;DHT22;21132;48.308;14.274;2023-03-12T05:44:57;3.70;56.60
34927;DHT22;21132;48.308;14.274;2023-03-12T05:47:23;3.70;56.80
34927;DHT22;21132;48.308;14.274;2023-03-12T05:49:49;3.80;56.90
34927;DHT22;21132;48.308;14.274;2023-03-12T05:52:15;3.80;57.00
34927;DHT22;21132;48.308;14.274;2023-03-12T05:54:41;3.80;57.10
34927;DHT22;21132;48.308;14.274;2023-03-12T05:57:06;3.90;57.10
34927;DHT22;21132;48.308;14.274;2023-03-12T05:59:33;4.00;57.10
34927;DHT22;21132;48.308;14.274;2023-03-12T06:01:59;4.10;57.20
34927;DHT22;21132;48.308;14.274;2023-03-12T06:04:25;4.10;57.10
34927;DHT22;21132;48.308;14.274;2023-03-12T06:06:51;4.20;57.00
34927;DHT22;21132;48.308;14.274;2023-03-12T06:09:16;4.30;56.90
34927;DHT22;21132;48.308;14.274;2023-03-12T06:11:42;4.40;56.80
34927;DHT22;21132;48.308;14.274;2023-03-12T06:14:08;4.50;56.80
34927;DHT22;21132;48.308;14.274;2023-03-12T06:16:34;4.60;56.90
34927;DHT22;21132;48.308;14.274;2023-03-12T06:19:01;4.70;56.90
34927;DHT22;21132;48.308;14.274;2023-03-12T06:21:30;4.90;56.90
34927;DHT22;21132;48.308;14.274;2023-03-12T06:23:56;4.90;56.80
34927;DHT22;21132;48.308;14.274;2023-03-12T06:26:23;5.10;56.90
34927;DHT22;21132;48.308;14.274;2023-03-12T06:28:49;5.20;56.70
34927;DHT22;21132;48.308;14.274;2023-03-12T06:31:16;5.30;56.60
34927;DHT22;21132;48.308;14.274;2023-03-12T06:33:42;5.40;56.40
34927;DHT22;21132;48.308;14.274;2023-03-12T06:36:08;5.50;56.30
34927;DHT22;21132;48.308;14.274;2023-03-12T06:38:35;5.60;56.10
34927;DHT22;21132;48.308;14.274;2023-03-12T06:41:21;5.70;56.00
34927;DHT22;21132;48.308;14.274;2023-03-12T06:43:48;5.80;56.00
34927;DHT22;21132;48.308;14.274;2023-03-12T06:46:16;5.90;55.80
34927;DHT22;21132;48.308;14.274;2023-03-12T06:48:42;6.00;55.70
34927;DHT22;21132;48.308;14.274;2023-03-12T06:51:12;6.10;56.20
34927;DHT22;21132;48.308;14.274;2023-03-12T06:53:38;6.20;55.50
34927;DHT22;21132;48.308;14.274;2023-03-12T06:56:04;6.30;55.30
34927;DHT22;21132;48.308;14.274;2023-03-12T06:58:30;6.50;55.10
34927;DHT22;21132;48.308;14.274;2023-03-12T07:00:56;6.50;55.50
34927;DHT22;21132;48.308;14.274;2023-03-12T07:03:22;6.60;54.80
34927;DHT22;21132;48.308;14.274;2023-03-12T07:05:49;6.70;54.60
34927;DHT22;21132;48.308;14.274;2023-03-12T07:08:16;6.90;54.50
34927;DHT22;21132;48.308;14.274;2023-03-12T07:10:43;7.00;54.40
34927;DHT22;21132;48.308;14.274;2023-03-12T07:13:10;7.10;54.20
34927;DHT22;21132;48.308;14.274;2023-03-12T07:15:35;7.10;54.00
34927;DHT22;21132;48.308;14.274;2023-03-12T07:18:09;7.20;53.80
34927;DHT22;21132;48.308;14.274;2023-03-12T07:20:37;7.30;53.70
34927;DHT22;21132;48.308;14.274;2023-03-12T07:23:03;7.40;53.50
34927;DHT22;21132;48.308;14.274;2023-03-12T07:25:29;7.40;53.30
34927;DHT22;21132;48.308;14.274;2023-03-12T07:27:55;7.50;53.10
34927;DHT22;21132;48.308;14.274;2023-03-12T07:30:21;7.60;52.80
34927;DHT22;21132;48.308;14.274;2023-03-12T07:32:47;7.60;52.30
34927;DHT22;21132;48.308;14.274;2023-03-12T07:35:13;7.60;51.70
34927;DHT22;21132;48.308;14.274;2023-03-12T07:37:38;7.60;51.60
34927;DHT22;21132;48.308;14.274;2023-03-12T07:40:05;7.50;51.30
34927;DHT22;21132;48.308;14.274;2023-03-12T07:42:32;7.50;50.90
34927;DHT22;21132;48.308;14.274;2023-03-12T07:44:58;7.40;50.40
34927;DHT22;21132;48.308;14.274;2023-03-12T07:47:24;7.30;50.50
34927;DHT22;21132;48.308;14.274;2023-03-12T07:49:50;7.20;50.60
34927;DHT22;21132;48.308;14.274;2023-03-12T07:52:16;7.20;50.80
34927;DHT22;21132;48.308;14.274;2023-03-12T07:54:44;7.20;51.20
34927;DHT22;21132;48.308;14.274;2023-03-12T07:57:10;7.20;51.40
34927;DHT22;21132;48.308;14.274;2023-03-12T07:59:36;7.20;51.40
34927;DHT22;21132;48.308;14.274;2023-03-12T08:02:02;7.30;51.60
34927;DHT22;21132;48.308;14.274;2023-03-12T08:04:28;7.30;51.60
34927;DHT22;21132;48.308;14.274;2023-03-12T08:06:54;7.40;51.60
34927;DHT22;21132;48.308;14.274;2023-03-12T08:09:20;7.50;51.40
34927;DHT22;21132;48.308;14.274;2023-03-12T08:11:46;7.50;51.20
34927;DHT22;21132;48.308;14.274;2023-03-12T08:14:11;7.60;51.30
34927;DHT22;21132;48.308;14.274;2023-03-12T08:16:37;7.70;51.50
34927;DHT22;21132;48.308;14.274;2023-03-12T08:19:03;7.80;51.50
34927;DHT22;21132;48.308;14.274;2023-03-12T08:21:28;7.90;51.60
34927;DHT22;21132;48.308;14.274;2023-03-12T08:23:54;8.00;51.60
34927;DHT22;21132;48.308;14.274;2023-03-12T08:26:20;8.20;51.50
34927;DHT22;21132;48.308;14.274;2023-03-12T08:28:46;8.30;51.30
34927;DHT22;21132;48.308;14.274;2023-03-12T08:31:11;8.40;50.80
34927;DHT22;21132;48.308;14.274;2023-03-12T08:33:38;8.50;50.50
34927;DHT22;21132;48.308;14.274;2023-03-12T08:36:08;8.70;50.40
34927;DHT22;21132;48.308;14.274;2023-03-12T08:38:34;8.80;50.30
34927;DHT22;21132;48.308;14.274;2023-03-12T08:41:00;8.90;50.20
34927;DHT22;21132;48.308;14.274;2023-03-12T08:43:27;9.00;49.90
34927;DHT22;21132;48.308;14.274;2023-03-12T08:45:57;9.10;49.80
34927;DHT22;21132;48.308;14.274;2023-03-12T08:48:24;9.20;49.10
34927;DHT22;21132;48.308;14.274;2023-03-12T08:50:50;9.20;49.00
34927;DHT22;21132;48.308;14.274;2023-03-12T08:53:18;9.30;49.00
34927;DHT22;21132;48.308;14.274;2023-03-12T08:55:44;9.40;48.70
34927;DHT22;21132;48.308;14.274;2023-03-12T08:58:10;9.50;48.80
34927;DHT22;21132;48.308;14.274;2023-03-12T09:00:36;9.60;48.70
34927;DHT22;21132;48.308;14.274;2023-03-12T09:03:02;9.70;48.50
34927;DHT22;21132;48.308;14.274;2023-03-12T09:05:27;9.80;47.60
34927;DHT22;21132;48.308;14.274;2023-03-12T09:07:56;9.90;47.60
34927;DHT22;21132;48.308;14.274;2023-03-12T09:10:24;10.00;47.50
34927;DHT22;21132;48.308;14.274;2023-03-12T09:12:51;10.10;47.90
34927;DHT22;21132;48.308;14.274;2023-03-12T09:15:17;10.30;47.20
34927;DHT22;21132;48.308;14.274;2023-03-12T09:17:43;10.30;46.20
34927;DHT22;21132;48.308;14.274;2023-03-12T09:20:09;10.50;46.60
34927;DHT22;21132;48.308;14.274;2023-03-12T09:22:39;10.60;46.10
34927;DHT22;21132;48.308;14.274;2023-03-12T09:25:08;10.60;44.70
34927;DHT22;21132;48.308;14.274;2023-03-12T09:27:39;10.70;45.10
34927;DHT22;21132;48.308;14.274;2023-03-12T09:30:07;10.80;45.40
34927;DHT22;21132;48.308;14.274;2023-03-12T09:32:33;10.80;45.10
34927;DHT22;21132;48.308;14.274;2023-03-12T09:34:59;10.90;44.20
34927;DHT22;21132;48.308;14.274;2023-03-12T09:37:25;11.00;44.90
34927;DHT22;21132;48.308;14.274;2023-03-12T09:39:51;11.10;44.90
34927;DHT22;21132;48.308;14.274;2023-03-12T09:44:59;11.30;44.70
34927;DHT22;21132;48.308;14.274;2023-03-12T09:47:32;11.40;43.30
34927;DHT22;21132;48.308;14.274;2023-03-12T09:50:04;11.40;42.80
34927;DHT22;21132;48.308;14.274;2023-03-12T09:52:44;11.40;42.40
34927;DHT22;21132;48.308;14.274;2023-03-12T09:55:19;11.50;42.40
34927;DHT22;21132;48.308;14.274;2023-03-12T09:57:47;11.50;42.60
34927;DHT22;21132;48.308;14.274;2023-03-12T10:00:17;11.60;42.30
34927;DHT22;21132;48.308;14.274;2023-03-12T10:02:52;11.70;42.80
34927;DHT22;21132;48.308;14.274;2023-03-12T10:08:11;12.00;43.10
34927;DHT22;21132;48.308;14.274;2023-03-12T10:14:05;12.40;42.10
34927;DHT22;21132;48.308;14.274;2023-03-12T10:26:57;13.00;40.40
34927;DHT22;21132;48.308;14.274;2023-03-12T10:29:39;13.00;39.30
34927;DHT22;21132;48.308;14.274;2023-03-12T10:34:42;13.00;39.50
34927;DHT22;21132;48.308;14.274;2023-03-12T10:37:28;13.10;39.40
34927;DHT22;21132;48.308;14.274;2023-03-12T10:39:55;13.10;39.30
34927;DHT22;21132;48.308;14.274;2023-03-12T10:42:23;13.20;39.30
34927;DHT22;21132;48.308;14.274;2023-03-12T10:45:16;13.30;38.50
34927;DHT22;21132;48.308;14.274;2023-03-12T10:47:44;13.30;38.60
34927;DHT22;21132;48.308;14.274;2023-03-12T10:50:22;13.40;40.20
34927;DHT22;21132;48.308;14.274;2023-03-12T10:52:50;13.40;38.10
34927;DHT22;21132;48.308;14.274;2023-03-12T10:55:28;13.50;38.40
34927;DHT22;21132;48.308;14.274;2023-03-12T10:57:55;13.60;38.10
34927;DHT22;21132;48.308;14.274;2023-03-12T11:00:26;13.70;38.40
34927;DHT22;21132;48.308;14.274;2023-03-12T11:03:17;13.80;38.20
34927;DHT22;21132;48.308;14.274;2023-03-12T11:05:51;13.80;37.00
34927;DHT22;21132;48.308;14.274;2023-03-12T11:08:30;13.80;36.20
34927;DHT22;21132;48.308;14.274;2023-03-12T11:11:02;13.80;36.00
34927;DHT22;21132;48.308;14.274;2023-03-12T11:13:34;13.70;35.80
34927;DHT22;21132;48.308;14.274;2023-03-12T11:16:24;13.60;36.50
34927;DHT22;21132;48.308;14.274;2023-03-12T11:18:57;13.70;37.10
34927;DHT22;21132;48.308;14.274;2023-03-12T11:21:27;13.60;36.00
34927;DHT22;21132;48.308;14.274;2023-03-12T11:26:24;13.40;36.40
34927;DHT22;21132;48.308;14.274;2023-03-12T11:28:58;13.40;36.00
34927;DHT22;21132;48.308;14.274;2023-03-12T11:31:32;13.30;36.80
34927;DHT22;21132;48.308;14.274;2023-03-12T11:34:04;13.20;36.90
34927;DHT22;21132;48.308;14.274;2023-03-12T11:42:01;13.20;37.90
34927;DHT22;21132;48.308;14.274;2023-03-12T11:53:21;13.30;36.40
34927;DHT22;21132;48.308;14.274;2023-03-12T11:56:23;13.40;36.80
34927;DHT22;21132;48.308;14.274;2023-03-12T12:07:26;13.70;38.90
34927;DHT22;21132;48.308;14.274;2023-03-12T12:10:02;13.80;38.10
34927;DHT22;21132;48.308;14.274;2023-03-12T12:12:53;13.90;38.40
34927;DHT22;21132;48.308;14.274;2023-03-12T12:18:19;14.00;38.10
34927;DHT22;21132;48.308;14.274;2023-03-12T12:20:54;14.00;38.00
34927;DHT22;21132;48.308;14.274;2023-03-12T12:26:07;14.00;38.60
34927;DHT22;21132;48.308;14.274;2023-03-12T12:28:58;14.10;38.70
34927;DHT22;21132;48.308;14.274;2023-03-12T12:31:52;14.10;38.50
34927;DHT22;21132;48.308;14.274;2023-03-12T12:34:34;14.00;38.60
34927;DHT22;21132;48.308;14.274;2023-03-12T12:39:46;14.00;39.20
34927;DHT22;21132;48.308;14.274;2023-03-12T12:42:22;14.00;39.70
34927;DHT22;21132;48.308;14.274;2023-03-12T12:44:52;14.00;39.90
34927;DHT22;21132;48.308;14.274;2023-03-12T12:47:30;14.10;40.10
34927;DHT22;21132;48.308;14.274;2023-03-12T12:49:57;14.00;40.20
34927;DHT22;21132;48.308;14.274;2023-03-12T12:52:25;14.10;40.10
34927;DHT22;21132;48.308;14.274;2023-03-12T12:57:46;14.00;40.00
34927;DHT22;21132;48.308;14.274;2023-03-12T13:03:16;14.10;40.10
34927;DHT22;21132;48.308;14.274;2023-03-12T13:05:53;14.10;40.40
34927;DHT22;21132;48.308;14.274;2023-03-12T13:13:46;14.20;40.60
34927;DHT22;21132;48.308;14.274;2023-03-12T13:16:39;14.20;40.40
34927;DHT22;21132;48.308;14.274;2023-03-12T13:25:47;14.10;40.30
34927;DHT22;21132;48.308;14.274;2023-03-12T13:27:44;14.00;40.40
34927;DHT22;21132;48.308;14.274;2023-03-12T13:43:16;13.90;40.60
34927;DHT22;21132;48.308;14.274;2023-03-12T13:48:45;13.90;41.10
34927;DHT22;21132;48.308;14.274;2023-03-12T13:51:22;14.00;41.20
34927;DHT22;21132;48.308;14.274;2023-03-12T13:53:54;14.00;41.30
34927;DHT22;21132;48.308;14.274;2023-03-12T13:56:28;14.00;41.20
34927;DHT22;21132;48.308;14.274;2023-03-12T13:58:56;14.10;41.10
34927;DHT22;21132;48.308;14.274;2023-03-12T14:01:30;14.10;41.20
34927;DHT22;21132;48.308;14.274;2023-03-12T14:04:07;14.10;41.10
34927;DHT22;21132;48.308;14.274;2023-03-12T14:07:07;14.10;41.20
34927;DHT22;21132;48.308;14.274;2023-03-12T14:18:14;14.00;41.30
34927;DHT22;21132;48.308;14.274;2023-03-12T14:20:50;13.90;41.40
34927;DHT22;21132;48.308;14.274;2023-03-12T14:23:17;13.80;41.70
34927;DHT22;21132;48.308;14.274;2023-03-12T14:25:45;13.70;42.10
34927;DHT22;21132;48.308;14.274;2023-03-12T14:28:21;13.50;42.30
34927;DHT22;21132;48.308;14.274;2023-03-12T14:33:14;13.40;42.70
34927;DHT22;21132;48.308;14.274;2023-03-12T14:35:45;13.50;43.10
34927;DHT22;21132;48.308;14.274;2023-03-12T14:38:30;13.40;43.00
34927;DHT22;21132;48.308;14.274;2023-03-12T14:41:11;13.40;43.00
34927;DHT22;21132;48.308;14.274;2023-03-12T14:43:40;13.40;43.10
34927;DHT22;21132;48.308;14.274;2023-03-12T14:46:18;13.40;43.00
34927;DHT22;21132;48.308;14.274;2023-03-12T14:48:48;13.30;43.10
34927;DHT22;21132;48.308;14.274;2023-03-12T14:51:23;13.40;43.30
34927;DHT22;21132;48.308;14.274;2023-03-12T14:53:50;13.40;43.30
34927;DHT22;21132;48.308;14.274;2023-03-12T14:56:24;13.40;43.30
34927;DHT22;21132;48.308;14.274;2023-03-12T14:58:56;13.30;43.30
34927;DHT22;21132;48.308;14.274;2023-03-12T15:01:32;13.30;43.40
34927;DHT22;21132;48.308;14.274;2023-03-12T15:04:04;13.20;43.50
34927;DHT22;21132;48.308;14.274;2023-03-12T15:06:37;13.20;43.60
34927;DHT22;21132;48.308;14.274;2023-03-12T15:09:06;13.20;43.80
34927;DHT22;21132;48.308;14.274;2023-03-12T15:11:34;13.10;44.00
34927;DHT22;21132;48.308;14.274;2023-03-12T15:14:07;13.10;44.10
34927;DHT22;21132;48.308;14.274;2023-03-12T15:16:34;13.00;44.10
34927;DHT22;21132;48.308;14.274;2023-03-12T15:19:01;13.00;44.20
34927;DHT22;21132;48.308;14.274;2023-03-12T15:21:28;13.00;44.70
34927;DHT22;21132;48.308;14.274;2023-03-12T15:23:56;12.90;44.60
34927;DHT22;21132;48.308;14.274;2023-03-12T15:29:17;12.90;44.90
34927;DHT22;21132;48.308;14.274;2023-03-12T15:31:58;12.80;45.20
34927;DHT22;21132;48.308;14.274;2023-03-12T15:34:36;12.80;45.40
34927;DHT22;21132;48.308;14.274;2023-03-12T15:37:26;12.70;45.60
34927;DHT22;21132;48.308;14.274;2023-03-12T15:40:00;12.60;45.50
34927;DHT22;21132;48.308;14.274;2023-03-12T15:42:45;12.60;45.70
34927;DHT22;21132;48.308;14.274;2023-03-12T15:45:24;12.60;45.80
34927;DHT22;21132;48.308;14.274;2023-03-12T15:47:51;12.60;45.90
34927;DHT22;21132;48.308;14.274;2023-03-12T15:50:29;12.60;46.00
34927;DHT22;21132;48.308;14.274;2023-03-12T15:53:05;12.60;46.50
34927;DHT22;21132;48.308;14.274;2023-03-12T15:55:34;12.50;46.50
34927;DHT22;21132;48.308;14.274;2023-03-12T15:58:00;12.50;46.70
34927;DHT22;21132;48.308;14.274;2023-03-12T16:00:27;12.50;47.00
34927;DHT22;21132;48.308;14.274;2023-03-12T16:03:02;12.50;47.10
34927;DHT22;21132;48.308;14.274;2023-03-12T16:05:36;12.40;47.60
34927;DHT22;21132;48.308;14.274;2023-03-12T16:09:06;12.40;47.80
34927;DHT22;21132;48.308;14.274;2023-03-12T16:11:29;12.30;47.50
34927;DHT22;21132;48.308;14.274;2023-03-12T16:14:46;12.30;47.60
34927;DHT22;21132;48.308;14.274;2023-03-12T16:16:49;12.30;47.70
34927;DHT22;21132;48.308;14.274;2023-03-12T16:19:19;12.20;47.70
34927;DHT22;21132;48.308;14.274;2023-03-12T16:21:47;12.20;47.90
34927;DHT22;21132;48.308;14.274;2023-03-12T16:24:15;12.20;48.50
34927;DHT22;21132;48.308;14.274;2023-03-12T16:26:53;12.10;48.30
34927;DHT22;21132;48.308;14.274;2023-03-12T16:29:30;12.10;49.10
34927;DHT22;21132;48.308;14.274;2023-03-12T16:31:58;12.10;48.90
34927;DHT22;21132;48.308;14.274;2023-03-12T16:34:27;12.00;48.70
34927;DHT22;21132;48.308;14.274;2023-03-12T16:36:53;12.00;48.90
34927;DHT22;21132;48.308;14.274;2023-03-12T16:39:20;11.90;48.90
34927;DHT22;21132;48.308;14.274;2023-03-12T16:41:49;11.90;49.00
34927;DHT22;21132;48.308;14.274;2023-03-12T16:44:19;11.90;49.00
34927;DHT22;21132;48.308;14.274;2023-03-12T16:46:46;11.80;49.60
34927;DHT22;21132;48.308;14.274;2023-03-12T16:49:14;11.80;49.50
34927;DHT22;21132;48.308;14.274;2023-03-12T16:51:42;11.80;49.60
34927;DHT22;21132;48.308;14.274;2023-03-12T16:54:10;11.80;49.60
34927;DHT22;21132;48.308;14.274;2023-03-12T16:56:37;11.80;49.70
34927;DHT22;21132;48.308;14.274;2023-03-12T16:59:12;11.70;49.80
34927;DHT22;21132;48.308;14.274;2023-03-12T17:01:42;11.70;49.80
34927;DHT22;21132;48.308;14.274;2023-03-12T17:04:10;11.70;49.90
34927;DHT22;21132;48.308;14.274;2023-03-12T17:06:36;11.70;49.90
34927;DHT22;21132;48.308;14.274;2023-03-12T17:09:07;11.70;50.00
34927;DHT22;21132;48.308;14.274;2023-03-12T17:11:36;11.60;50.20
34927;DHT22;21132;48.308;14.274;2023-03-12T17:14:17;11.60;50.80
34927;DHT22;21132;48.308;14.274;2023-03-12T17:16:47;11.50;51.10
34927;DHT22;21132;48.308;14.274;2023-03-12T17:19:14;11.50;51.40
34927;DHT22;21132;48.308;14.274;2023-03-12T17:21:41;11.40;51.30
34927;DHT22;21132;48.308;14.274;2023-03-12T17:24:10;11.40;51.50
34927;DHT22;21132;48.308;14.274;2023-03-12T17:26:39;11.40;51.70
34927;DHT22;21132;48.308;14.274;2023-03-12T17:29:05;11.30;51.50